Time;durP1;ratioP1;P1;durP2;ratioP2;P2;SDS_P1;SDS_P2;PMS_P1;PMS_P2;Temp;Humidity;BMP_temperature;BMP_pressure;BME280_temperature;BME280_humidity;BME280_pressure;Samples;Min_cycle;Max_cycle;Signal;HPM_P1;HPM_P2
2023/09/09 00:02:12;;;;;;;10.35;7.80;;;18.50;99.90;;;;;;5032741;28;20037;-77
2023/09/09 00:04:37;;;;;;;12.05;7.90;;;18.50;99.90;;;;;;5031982;28;20087;-75
2023/09/09 00:07:03;;;;;;;12.02;7.05;;;18.50;99.90;;;;;;5032632;28;20496;-78
2023/09/09 00:09:29;;;;;;;10.80;7.45;;;18.50;99.90;;;;;;5014400;28;20057;-76
2023/09/09 00:11:55;;;;;;;10.00;7.60;;;18.50;99.90;;;;;;5032669;28;20042;-76
2023/09/09 00:14:21;;;;;;;10.45;7.78;;;18.40;99.90;;;;;;5032615;28;20053;-76
2023/09/09 00:16:47;;;;;;;10.85;8.50;;;18.40;99.90;;;;;;5031153;28;20552;-76
2023/09/09 00:19:12;;;;;;;11.60;7.97;;;18.40;99.90;;;;;;5032697;28;20373;-77
2023/09/09 00:21:38;;;;;;;13.30;8.70;;;18.30;99.90;;;;;;5032206;28;20503;-76
2023/09/09 00:24:04;;;;;;;8.48;7.57;;;18.30;99.90;;;;;;5031663;28;20858;-76
2023/09/09 00:26:31;;;;;;;12.48;7.50;;;18.20;99.90;;;;;;5031712;28;20050;-76
2023/09/09 00:28:57;;;;;;;14.85;7.70;;;18.30;99.90;;;;;;5006269;28;20101;-74
2023/09/09 00:31:23;;;;;;;10.05;7.72;;;18.20;99.90;;;;;;5006235;28;20049;-74
2023/09/09 00:33:49;;;;;;;10.63;7.60;;;18.10;99.90;;;;;;5006357;28;20042;-74
2023/09/09 00:36:15;;;;;;;10.07;8.27;;;18.20;99.90;;;;;;5005460;28;20088;-75
2023/09/09 00:38:40;;;;;;;9.35;7.45;;;18.20;99.90;;;;;;5024391;28;20041;-74
2023/09/09 00:41:17;;;;;;;8.57;7.60;;;18.10;99.90;;;;;;5017894;28;20034;-76
2023/09/09 00:43:44;;;;;;;10.10;7.55;;;18.10;99.90;;;;;;5015689;28;20064;-75
2023/09/09 00:46:11;;;;;;;12.35;8.50;;;17.80;99.90;;;;;;5002893;28;20045;-74
2023/09/09 00:48:37;;;;;;;10.35;7.72;;;18.00;99.90;;;;;;4982651;28;20784;-75
2023/09/09 00:51:05;;;;;;;8.18;7.38;;;18.00;99.90;;;;;;5024734;28;20041;-76
2023/09/09 00:53:32;;;;;;;9.60;7.78;;;18.00;99.90;;;;;;5005621;28;20053;-74
2023/09/09 00:56:00;;;;;;;11.82;9.02;;;18.00;99.90;;;;;;5005229;28;20433;-75
2023/09/09 00:58:29;;;;;;;8.00;6.75;;;18.00;99.90;;;;;;5012824;28;20155;-74
2023/09/09 01:00:54;;;;;;;10.65;7.72;;;17.90;99.90;;;;;;5013836;28;20077;-78
2023/09/09 01:03:20;;;;;;;7.95;5.25;;;17.90;99.90;;;;;;5028228;28;20081;-74
2023/09/09 01:05:46;;;;;;;7.78;6.07;;;17.90;99.90;;;;;;5027516;28;20384;-75
2023/09/09 01:08:12;;;;;;;12.43;5.45;;;17.90;99.90;;;;;;5031352;28;20049;-78
2023/09/09 01:10:37;;;;;;;7.70;5.72;;;17.90;99.90;;;;;;5030869;28;20119;-75
2023/09/09 01:13:03;;;;;;;8.25;5.78;;;17.80;99.90;;;;;;5013577;28;20438;-74
2023/09/09 01:15:29;;;;;;;12.15;7.22;;;17.80;99.90;;;;;;5030725;28;20049;-76
2023/09/09 01:17:54;;;;;;;7.50;6.35;;;17.80;99.90;;;;;;5011653;28;20458;-75
2023/09/09 01:20:24;;;;;;;10.52;7.30;;;17.80;99.90;;;;;;4995154;28;20552;-75
2023/09/09 01:22:50;;;;;;;9.00;6.85;;;17.70;99.90;;;;;;5029801;28;20096;-75
2023/09/09 01:25:16;;;;;;;9.63;6.88;;;17.70;99.90;;;;;;5013651;28;20111;-75
2023/09/09 01:27:42;;;;;;;13.10;6.88;;;17.70;99.90;;;;;;5030485;28;20053;-74
2023/09/09 01:30:10;;;;;;;9.80;6.45;;;17.70;99.90;;;;;;5013253;28;20056;-74
2023/09/09 01:32:36;;;;;;;8.48;6.28;;;17.70;99.90;;;;;;5012496;28;20527;-74
2023/09/09 01:35:05;;;;;;;7.45;5.70;;;17.70;99.90;;;;;;5029778;28;20045;-74
2023/09/09 01:37:32;;;;;;;6.55;5.85;;;17.60;99.90;;;;;;5012989;28;20046;-75
2023/09/09 01:40:04;;;;;;;11.65;6.60;;;17.60;99.90;;;;;;5013224;28;20408;-76
2023/09/09 01:42:29;;;;;;;9.90;7.03;;;17.60;99.90;;;;;;5012432;28;20699;-75
2023/09/09 01:44:55;;;;;;;8.57;5.75;;;17.60;99.90;;;;;;5030410;28;20045;-76
2023/09/09 01:47:20;;;;;;;9.68;6.43;;;17.60;99.90;;;;;;5012882;28;20056;-75
2023/09/09 01:49:46;;;;;;;8.48;6.10;;;17.50;99.90;;;;;;5012874;28;20045;-76
2023/09/09 01:52:12;;;;;;;8.27;6.65;;;17.50;99.90;;;;;;5030555;28;20044;-76
2023/09/09 01:54:38;;;;;;;8.73;6.47;;;17.50;99.90;;;;;;5000968;28;20149;-78
2023/09/09 01:57:04;;;;;;;11.20;6.53;;;17.50;99.90;;;;;;4992789;28;20049;-78
2023/09/09 01:59:29;;;;;;;10.20;6.03;;;17.40;99.90;;;;;;5010321;28;20041;-77
2023/09/09 02:01:55;;;;;;;7.72;5.25;;;17.40;99.90;;;;;;4999238;28;20474;-77
2023/09/09 02:04:21;;;;;;;9.48;6.10;;;17.40;99.90;;;;;;4993482;28;20053;-77
2023/09/09 02:06:46;;;;;;;7.50;6.70;;;17.40;99.90;;;;;;5010735;28;20029;-78
2023/09/09 02:09:13;;;;;;;10.05;6.45;;;17.30;99.90;;;;;;5010553;28;20034;-75
2023/09/09 02:11:39;;;;;;;10.10;7.18;;;17.30;99.90;;;;;;4993614;28;20049;-75
2023/09/09 02:14:04;;;;;;;9.15;6.15;;;17.30;99.90;;;;;;5010831;28;20040;-78
2023/09/09 02:16:31;;;;;;;11.10;7.00;;;17.30;99.90;;;;;;4992862;28;20053;-78
2023/09/09 02:18:57;;;;;;;9.52;7.28;;;17.30;99.90;;;;;;4993014;28;20089;-75
2023/09/09 02:21:23;;;;;;;9.90;6.45;;;17.30;99.90;;;;;;5009087;28;20081;-75
2023/09/09 02:23:49;;;;;;;11.98;7.10;;;17.20;99.90;;;;;;4996148;28;20068;-78
2023/09/09 02:26:15;;;;;;;10.32;6.38;;;17.20;99.90;;;;;;4981668;28;20616;-75
2023/09/09 02:28:40;;;;;;;7.65;6.32;;;17.20;99.90;;;;;;4987635;28;20053;-75
2023/09/09 02:31:06;;;;;;;11.27;7.22;;;17.20;99.90;;;;;;4992480;28;20373;-74
2023/09/09 02:33:32;;;;;;;10.52;6.80;;;17.10;99.90;;;;;;5009528;28;20057;-74
2023/09/09 02:36:01;;;;;;;8.95;7.20;;;17.10;99.90;;;;;;4992932;28;20045;-75
2023/09/09 02:38:26;;;;;;;8.80;7.40;;;17.10;99.90;;;;;;5008825;28;20400;-78
2023/09/09 02:40:52;;;;;;;14.90;7.90;;;17.10;99.90;;;;;;4992789;28;20042;-77
2023/09/09 02:43:18;;;;;;;9.77;7.47;;;17.20;99.90;;;;;;5009483;28;20485;-76
2023/09/09 02:45:43;;;;;;;11.73;9.00;;;17.10;99.90;;;;;;5009881;28;20393;-76
2023/09/09 02:48:09;;;;;;;9.88;8.88;;;17.20;99.90;;;;;;4992381;28;20803;-79
2023/09/09 02:50:35;;;;;;;10.20;8.57;;;17.20;99.90;;;;;;4992366;28;20053;-78
2023/09/09 02:53:01;;;;;;;12.52;8.85;;;17.20;99.90;;;;;;4991971;28;20042;-77
2023/09/09 02:55:26;;;;;;;11.27;9.57;;;17.20;99.90;;;;;;4999985;28;20120;-75
2023/09/09 02:57:52;;;;;;;11.38;9.63;;;17.20;99.90;;;;;;5000896;28;20049;-77
2023/09/09 03:00:18;;;;;;;13.65;9.10;;;17.20;99.90;;;;;;5013370;28;20107;-78
2023/09/09 03:02:43;;;;;;;14.57;8.68;;;17.20;99.90;;;;;;4998392;28;20144;-74
2023/09/09 03:05:10;;;;;;;14.73;8.63;;;17.30;99.90;;;;;;5003324;28;20037;-74
2023/09/09 03:07:36;;;;;;;11.10;8.65;;;17.20;99.90;;;;;;4994225;28;20543;-76
2023/09/09 03:10:02;;;;;;;16.27;9.90;;;17.20;99.90;;;;;;5021285;28;20056;-75
2023/09/09 03:12:28;;;;;;;14.20;10.27;;;17.20;99.90;;;;;;5000418;28;20045;-74
2023/09/09 03:14:53;;;;;;;10.25;8.82;;;17.10;99.90;;;;;;4999553;28;20584;-74
2023/09/09 03:17:19;;;;;;;12.63;8.50;;;17.10;99.90;;;;;;5005203;28;20687;-75
2023/09/09 03:19:45;;;;;;;13.60;8.63;;;17.10;99.90;;;;;;5021411;28;20400;-77
2023/09/09 03:22:11;;;;;;;12.15;9.00;;;17.00;99.90;;;;;;4991333;28;20043;-77
2023/09/09 03:24:37;;;;;;;10.50;9.10;;;17.00;99.90;;;;;;5002379;28;20211;-75
2023/09/09 03:27:02;;;;;;;14.60;9.85;;;17.00;99.90;;;;;;5021848;28;20048;-75
2023/09/09 03:29:28;;;;;;;10.38;8.73;;;16.90;99.90;;;;;;5015878;28;20045;-75
2023/09/09 03:31:54;;;;;;;11.18;9.00;;;16.90;99.90;;;;;;4998604;28;20081;-75
2023/09/09 03:34:19;;;;;;;14.20;10.80;;;17.00;99.90;;;;;;5000429;28;20133;-74
2023/09/09 03:36:45;;;;;;;12.93;10.82;;;16.90;99.90;;;;;;5000157;28;20125;-77
2023/09/09 03:39:11;;;;;;;14.50;11.18;;;17.00;99.90;;;;;;5000888;28;20042;-75
2023/09/09 03:41:38;;;;;;;11.88;10.32;;;17.00;99.90;;;;;;4999301;28;20037;-74
2023/09/09 03:44:04;;;;;;;16.90;11.38;;;17.00;99.90;;;;;;4996024;28;20482;-75
2023/09/09 03:46:29;;;;;;;15.80;12.98;;;16.90;99.90;;;;;;5002539;28;20061;-74
2023/09/09 03:48:55;;;;;;;15.75;13.10;;;17.00;99.90;;;;;;5003212;28;20049;-74
2023/09/09 03:51:21;;;;;;;16.42;12.77;;;17.00;99.90;;;;;;5002682;28;20485;-75
2023/09/09 03:53:46;;;;;;;17.35;14.20;;;17.00;99.90;;;;;;5000191;28;20461;-75
2023/09/09 03:56:12;;;;;;;16.23;14.43;;;17.00;99.90;;;;;;5007849;28;20045;-74
2023/09/09 03:58:38;;;;;;;20.83;14.50;;;17.00;99.90;;;;;;4995187;28;20137;-74
2023/09/09 04:01:08;;;;;;;19.23;13.50;;;17.00;99.90;;;;;;5029191;28;20088;-75
2023/09/09 04:03:36;;;;;;;15.70;13.35;;;17.00;99.90;;;;;;5029051;28;20049;-74
2023/09/09 04:06:07;;;;;;;13.75;12.02;;;17.00;99.90;;;;;;5029482;28;20116;-75
2023/09/09 04:08:35;;;;;;;14.77;12.15;;;17.00;99.90;;;;;;5029376;28;20037;-74
2023/09/09 04:11:00;;;;;;;15.82;13.57;;;16.90;99.90;;;;;;5003634;28;20053;-75
2023/09/09 04:13:26;;;;;;;25.75;16.23;;;16.90;99.90;;;;;;5010775;28;20432;-77
2023/09/09 04:15:53;;;;;;;20.48;16.02;;;16.80;99.90;;;;;;5013611;28;20049;-76
2023/09/09 04:18:19;;;;;;;18.70;15.05;;;16.90;99.90;;;;;;5012094;28;20131;-74
2023/09/09 04:20:45;;;;;;;18.17;14.25;;;16.80;99.90;;;;;;5011501;28;20053;-79
2023/09/09 04:23:11;;;;;;;14.77;12.10;;;16.80;99.90;;;;;;5013347;28;20389;-75
2023/09/09 04:25:36;;;;;;;18.08;14.27;;;16.80;99.90;;;;;;5014677;28;20389;-75
2023/09/09 04:28:02;;;;;;;16.42;14.50;;;16.80;99.90;;;;;;5014730;28;20041;-76
2023/09/09 04:30:28;;;;;;;21.08;17.02;;;16.80;99.90;;;;;;5032632;28;20374;-77
2023/09/09 04:32:54;;;;;;;19.15;13.82;;;16.80;99.90;;;;;;5014589;28;20041;-75
2023/09/09 04:35:20;;;;;;;20.70;17.17;;;16.80;99.90;;;;;;5030587;28;20072;-80
2023/09/09 04:37:45;;;;;;;20.25;17.40;;;16.80;99.90;;;;;;5032098;28;20080;-76
2023/09/09 04:40:11;;;;;;;21.45;18.17;;;16.90;99.90;;;;;;5013873;28;20051;-75
2023/09/09 04:42:36;;;;;;;27.25;19.27;;;16.90;99.90;;;;;;5032176;28;20033;-75
2023/09/09 04:45:03;;;;;;;25.17;19.52;;;16.90;99.90;;;;;;5013717;28;20496;-76
2023/09/09 04:47:29;;;;;;;26.40;20.35;;;17.00;99.90;;;;;;5012880;28;20041;-78
2023/09/09 04:49:57;;;;;;;28.05;20.85;;;17.00;99.90;;;;;;5031935;28;20052;-78
2023/09/09 04:52:23;;;;;;;23.48;18.92;;;17.10;99.90;;;;;;5013383;28;20121;-77
2023/09/09 04:54:49;;;;;;;24.17;17.85;;;17.00;99.90;;;;;;5031927;28;20159;-77
2023/09/09 04:57:15;;;;;;;22.40;17.88;;;17.00;99.90;;;;;;5031262;28;20053;-77
2023/09/09 04:59:41;;;;;;;23.30;19.50;;;17.00;99.90;;;;;;5006116;28;20099;-75
2023/09/09 05:02:07;;;;;;;19.75;17.70;;;17.00;99.90;;;;;;5018820;28;20034;-74
2023/09/09 05:04:33;;;;;;;21.58;18.65;;;16.90;99.90;;;;;;5023412;28;20053;-76
2023/09/09 05:06:58;;;;;;;23.92;21.08;;;16.90;99.90;;;;;;5021705;28;20041;-74
2023/09/09 05:09:24;;;;;;;19.77;16.35;;;16.70;99.90;;;;;;5005490;28;20052;-77
2023/09/09 05:11:50;;;;;;;18.13;15.73;;;16.90;99.90;;;;;;5008915;28;20064;-76
2023/09/09 05:14:15;;;;;;;20.00;16.25;;;16.80;99.90;;;;;;5022499;28;20108;-75
2023/09/09 05:16:41;;;;;;;22.20;19.80;;;16.80;99.90;;;;;;5013111;28;20403;-75
2023/09/09 05:19:07;;;;;;;21.67;15.70;;;16.90;99.90;;;;;;5030134;28;20045;-77
2023/09/09 05:21:32;;;;;;;18.20;15.68;;;16.80;99.90;;;;;;5030951;28;20077;-74
2023/09/09 05:23:58;;;;;;;15.80;13.85;;;16.80;99.90;;;;;;5021701;28;20057;-76
2023/09/09 05:26:23;;;;;;;16.70;14.90;;;16.80;99.90;;;;;;5001635;28;20041;-75
2023/09/09 05:28:49;;;;;;;13.82;12.38;;;16.70;99.90;;;;;;5009624;28;20092;-76
2023/09/09 05:31:15;;;;;;;16.50;14.32;;;16.70;99.90;;;;;;5004971;28;20075;-75
2023/09/09 05:33:41;;;;;;;18.42;15.75;;;16.70;99.90;;;;;;5010336;28;20485;-77
2023/09/09 05:36:07;;;;;;;17.10;15.30;;;16.70;99.90;;;;;;5010163;28;20038;-75
2023/09/09 05:38:33;;;;;;;16.88;14.05;;;16.60;99.90;;;;;;4996360;28;20042;-75
2023/09/09 05:40:58;;;;;;;17.48;14.65;;;16.60;99.90;;;;;;5019762;28;20485;-75
2023/09/09 05:43:24;;;;;;;12.85;11.50;;;16.60;99.90;;;;;;5022405;28;20044;-75
2023/09/09 05:45:50;;;;;;;13.60;12.18;;;16.70;99.90;;;;;;5030183;28;20563;-74
2023/09/09 05:48:15;;;;;;;11.68;10.27;;;16.70;99.90;;;;;;5030587;28;20091;-75
2023/09/09 05:50:41;;;;;;;13.05;11.73;;;16.60;99.90;;;;;;5011382;28;20099;-74
2023/09/09 05:53:07;;;;;;;13.88;12.48;;;16.70;99.90;;;;;;5030161;28;20038;-75
2023/09/09 05:55:33;;;;;;;16.65;14.95;;;16.60;99.90;;;;;;5006251;28;20488;-75
2023/09/09 05:57:59;;;;;;;17.48;14.77;;;16.70;99.90;;;;;;5019162;28;20456;-78
2023/09/09 06:00:24;;;;;;;18.92;15.90;;;16.70;99.90;;;;;;4996234;28;20138;-78
2023/09/09 06:02:50;;;;;;;19.00;17.00;;;16.70;99.90;;;;;;5019282;28;20042;-75
2023/09/09 06:05:15;;;;;;;21.33;18.55;;;16.80;99.90;;;;;;5001017;28;20058;-76
2023/09/09 06:07:42;;;;;;;22.80;18.40;;;16.80;99.90;;;;;;5025471;28;20037;-75
2023/09/09 06:10:10;;;;;;;24.80;19.95;;;16.80;99.90;;;;;;5019026;28;20409;-74
2023/09/09 06:12:36;;;;;;;24.52;19.42;;;16.90;99.90;;;;;;5003070;28;20049;-77
2023/09/09 06:15:02;;;;;;;22.85;19.75;;;16.90;99.90;;;;;;5018976;28;20048;-74
2023/09/09 06:17:27;;;;;;;27.08;20.92;;;17.00;99.90;;;;;;5017200;28;20108;-74
2023/09/09 06:19:53;;;;;;;23.88;18.88;;;17.00;99.90;;;;;;5020120;28;20056;-74
2023/09/09 06:22:18;;;;;;;22.35;18.45;;;17.10;99.90;;;;;;5016898;28;20038;-74
2023/09/09 06:24:44;;;;;;;27.13;21.63;;;17.10;99.90;;;;;;5000659;28;20052;-74
2023/09/09 06:27:10;;;;;;;24.30;21.42;;;17.20;99.90;;;;;;5018631;28;20069;-76
2023/09/09 06:29:36;;;;;;;21.75;18.30;;;17.30;99.90;;;;;;5018754;28;20050;-75
2023/09/09 06:32:03;;;;;;;23.80;20.50;;;17.30;99.90;;;;;;5019986;28;20057;-74
2023/09/09 06:34:29;;;;;;;26.27;21.40;;;17.40;99.90;;;;;;5001282;28;20077;-78
2023/09/09 06:36:54;;;;;;;24.88;21.05;;;17.40;99.90;;;;;;5000007;28;20119;-75
2023/09/09 06:39:20;;;;;;;28.23;23.00;;;17.60;99.90;;;;;;5020646;28;20125;-78
2023/09/09 06:41:46;;;;;;;26.90;23.08;;;17.60;99.90;;;;;;5021982;28;20112;-74
2023/09/09 06:44:11;;;;;;;32.10;26.20;;;17.70;99.90;;;;;;5011892;28;20037;-76
2023/09/09 06:46:37;;;;;;;36.13;29.30;;;17.80;99.90;;;;;;5006032;28;20425;-79
2023/09/09 06:49:03;;;;;;;37.28;30.73;;;17.90;99.90;;;;;;5018421;28;20121;-78
2023/09/09 06:51:29;;;;;;;33.42;29.00;;;18.00;99.90;;;;;;5020070;28;20049;-76
2023/09/09 06:53:54;;;;;;;34.83;29.65;;;18.10;99.90;;;;;;5017042;28;20100;-78
2023/09/09 06:56:20;;;;;;;34.15;29.88;;;18.20;99.90;;;;;;5020012;28;21037;-80
2023/09/09 06:58:46;;;;;;;42.85;34.20;;;18.30;99.90;;;;;;5024529;28;20053;-79
2023/09/09 07:01:11;;;;;;;43.13;34.13;;;18.40;99.90;;;;;;5021239;28;20037;-75
2023/09/09 07:03:37;;;;;;;43.55;35.50;;;18.50;99.90;;;;;;5019761;28;20037;-80
2023/09/09 07:06:03;;;;;;;42.08;32.92;;;18.60;99.90;;;;;;5006981;28;20042;-76
2023/09/09 07:08:29;;;;;;;44.20;35.47;;;18.70;99.90;;;;;;5015565;28;20119;-76
2023/09/09 07:10:56;;;;;;;39.50;34.25;;;18.80;99.90;;;;;;5022878;28;20046;-75
2023/09/09 07:13:22;;;;;;;43.47;34.67;;;18.90;99.90;;;;;;5015390;28;20125;-76
2023/09/09 07:15:52;;;;;;;38.03;32.88;;;19.00;99.90;;;;;;5019286;28;20056;-75
2023/09/09 07:18:18;;;;;;;42.55;35.05;;;19.10;99.90;;;;;;5029215;28;20054;-77
2023/09/09 07:20:46;;;;;;;40.45;33.72;;;19.20;99.90;;;;;;5029172;28;20048;-75
2023/09/09 07:23:15;;;;;;;40.10;34.40;;;19.30;99.90;;;;;;4991055;28;20050;-74
2023/09/09 07:25:47;;;;;;;37.50;33.10;;;19.40;99.90;;;;;;5024550;28;20070;-74
2023/09/09 07:28:12;;;;;;;39.35;32.85;;;19.50;99.90;;;;;;5021095;28;20137;-75
2023/09/09 07:30:38;;;;;;;41.65;33.95;;;19.60;99.90;;;;;;5013684;28;20132;-75
2023/09/09 07:33:04;;;;;;;42.55;34.20;;;19.70;99.90;;;;;;5010964;28;20053;-75
2023/09/09 07:35:32;;;;;;;39.00;34.22;;;19.80;99.90;;;;;;5025290;28;20041;-75
2023/09/09 07:37:58;;;;;;;43.95;35.00;;;19.90;99.90;;;;;;4997105;28;20073;-74
2023/09/09 07:40:23;;;;;;;38.28;33.35;;;20.00;99.90;;;;;;4989773;28;20038;-75
2023/09/09 07:42:50;;;;;;;39.03;33.95;;;20.10;99.90;;;;;;4976228;28;20061;-75
2023/09/09 07:45:16;;;;;;;39.90;35.47;;;20.30;99.90;;;;;;5012314;28;20054;-78
2023/09/09 07:47:42;;;;;;;39.78;33.70;;;20.40;99.90;;;;;;5013343;28;20037;-79
2023/09/09 07:50:08;;;;;;;39.53;35.13;;;20.50;99.90;;;;;;5001314;28;20084;-77
2023/09/09 07:52:34;;;;;;;36.22;32.28;;;20.60;99.90;;;;;;5004582;28;20137;-77
2023/09/09 07:54:59;;;;;;;38.60;33.78;;;20.70;99.90;;;;;;5021902;28;20454;-78
2023/09/09 07:57:25;;;;;;;41.40;32.80;;;20.80;99.90;;;;;;5012863;28;20058;-76
2023/09/09 07:59:51;;;;;;;38.45;33.60;;;20.90;99.90;;;;;;5016262;28;20074;-75
2023/09/09 08:02:16;;;;;;;37.45;33.55;;;21.10;99.90;;;;;;5027468;28;20120;-76
2023/09/09 08:04:42;;;;;;;37.95;31.95;;;21.20;99.90;;;;;;5005757;28;20042;-77
2023/09/09 08:07:08;;;;;;;36.30;31.52;;;21.40;99.90;;;;;;5024592;28;20395;-79
2023/09/09 08:09:34;;;;;;;38.65;31.95;;;21.50;99.90;;;;;;5014622;28;20046;-81
2023/09/09 08:11:59;;;;;;;37.78;31.35;;;21.70;99.90;;;;;;5011375;28;20049;-74
2023/09/09 08:14:25;;;;;;;38.78;31.25;;;21.90;99.90;;;;;;5031945;28;20042;-75
2023/09/09 08:16:51;;;;;;;34.92;30.20;;;22.10;99.90;;;;;;5012516;28;20468;-75
2023/09/09 08:19:17;;;;;;;37.28;30.55;;;22.30;99.90;;;;;;5032326;28;20484;-78
2023/09/09 08:21:42;;;;;;;34.50;30.75;;;22.50;99.90;;;;;;5012663;28;20046;-80
2023/09/09 08:24:08;;;;;;;34.63;29.70;;;22.80;99.90;;;;;;5003306;28;20405;-79
2023/09/09 08:26:34;;;;;;;34.30;30.63;;;23.00;99.90;;;;;;5026187;28;20042;-82
2023/09/09 08:28:59;;;;;;;35.80;31.55;;;23.20;99.90;;;;;;4995095;28;20050;-78
2023/09/09 08:31:25;;;;;;;35.88;30.48;;;23.50;99.90;;;;;;5019343;28;20057;-77
2023/09/09 08:33:51;;;;;;;32.90;29.35;;;23.80;99.90;;;;;;4994534;28;20052;-79
2023/09/09 08:36:17;;;;;;;34.75;29.92;;;24.00;99.90;;;;;;5011680;28;20057;-77
2023/09/09 08:38:42;;;;;;;32.08;28.58;;;24.20;99.90;;;;;;4998607;28;20500;-76
2023/09/09 08:41:16;;;;;;;32.92;29.13;;;24.50;99.90;;;;;;5014354;28;20131;-77
2023/09/09 08:43:48;;;;;;;32.43;27.43;;;24.80;99.90;;;;;;5031850;28;20038;-80
2023/09/09 08:46:20;;;;;;;29.77;25.50;;;25.00;99.90;;;;;;5014493;28;20552;-75
2023/09/09 08:48:49;;;;;;;29.92;26.65;;;25.20;99.90;;;;;;5026895;28;20041;-77
2023/09/09 08:51:24;;;;;;;29.95;26.75;;;25.40;99.90;;;;;;5024700;28;20382;-78
2023/09/09 08:53:54;;;;;;;29.73;26.10;;;25.70;99.90;;;;;;5005823;28;20137;-74
2023/09/09 08:56:21;;;;;;;30.75;26.73;;;25.80;99.90;;;;;;5028691;28;20065;-74
2023/09/09 08:58:46;;;;;;;34.85;27.15;;;26.00;99.90;;;;;;5013119;28;20543;-74
2023/09/09 09:01:14;;;;;;;30.40;25.83;;;26.20;99.90;;;;;;5035502;28;20034;-74
2023/09/09 09:03:40;;;;;;;28.88;25.83;;;26.30;99.90;;;;;;5031298;28;20073;-75
2023/09/09 09:06:06;;;;;;;32.55;27.55;;;26.50;99.90;;;;;;5013714;28;20084;-75
2023/09/09 09:08:33;;;;;;;31.13;25.88;;;26.60;99.90;;;;;;5031520;28;20451;-77
2023/09/09 09:11:01;;;;;;;26.52;23.17;;;26.80;99.90;;;;;;4991493;28;20491;-76
2023/09/09 09:13:31;;;;;;;26.55;23.60;;;26.90;99.90;;;;;;5005305;28;20064;-76
2023/09/09 09:15:58;;;;;;;28.50;25.50;;;27.10;99.90;;;;;;5005358;28;20085;-75
2023/09/09 09:18:24;;;;;;;29.63;24.65;;;27.20;99.90;;;;;;5023376;28;20049;-75
2023/09/09 09:20:51;;;;;;;32.70;25.50;;;27.20;99.90;;;;;;5022164;28;20075;-77
2023/09/09 09:23:17;;;;;;;30.20;25.85;;;27.30;99.90;;;;;;5020062;28;20449;-77
2023/09/09 09:25:45;;;;;;;28.52;25.45;;;27.40;99.90;;;;;;5020748;28;20080;-75
2023/09/09 09:28:15;;;;;;;28.88;24.25;;;27.50;99.90;;;;;;5029031;28;20060;-74
2023/09/09 09:30:42;;;;;;;30.52;25.08;;;27.60;99.90;;;;;;5005883;28;20057;-76
2023/09/09 09:33:07;;;;;;;28.35;25.10;;;27.70;99.90;;;;;;4978897;28;20077;-74
2023/09/09 09:35:36;;;;;;;32.97;26.63;;;27.90;99.90;;;;;;5026316;28;20466;-82
2023/09/09 09:38:02;;;;;;;29.52;24.33;;;28.00;99.90;;;;;;5020093;28;20065;-80
2023/09/09 09:40:29;;;;;;;27.52;24.00;;;28.10;99.90;;;;;;5030804;28;20053;-82
2023/09/09 09:42:56;;;;;;;27.15;23.95;;;28.10;99.90;;;;;;5030586;28;20096;-77
2023/09/09 09:45:28;;;;;;;28.25;25.27;;;28.30;99.90;;;;;;5030727;28;20048;-76
2023/09/09 09:47:54;;;;;;;26.98;24.08;;;28.50;99.90;;;;;;5030674;28;20382;-81
2023/09/09 09:50:30;;;;;;;26.23;23.08;;;28.50;99.90;;;;;;5030293;28;20508;-75
2023/09/09 09:52:57;;;;;;;30.25;24.27;;;28.60;99.90;;;;;;5030730;28;20045;-78
2023/09/09 09:55:23;;;;;;;26.52;23.52;;;28.80;99.90;;;;;;5030477;28;20083;-79
2023/09/09 09:57:51;;;;;;;26.02;23.27;;;28.70;99.90;;;;;;5030705;28;20392;-74
2023/09/09 10:00:18;;;;;;;36.95;24.95;;;28.80;99.90;;;;;;5013216;28;20045;-75
2023/09/09 10:02:49;;;;;;;30.23;25.20;;;28.90;99.90;;;;;;5012601;28;20084;-73
2023/09/09 10:05:16;;;;;;;27.60;24.65;;;28.80;99.90;;;;;;5030548;28;20397;-78
2023/09/09 10:07:45;;;;;;;24.05;20.65;;;28.70;99.90;;;;;;4996034;28;20058;-76
2023/09/09 10:10:15;;;;;;;30.05;23.52;;;29.00;99.90;;;;;;4993165;28;20077;-77
2023/09/09 10:13:06;;;;;;;28.80;22.27;;;29.00;99.90;;;;;;5028030;28;20052;-75
2023/09/09 10:15:34;;;;;;;25.73;21.77;;;29.20;99.90;;;;;;5027013;28;20041;-76
2023/09/09 10:18:00;;;;;;;22.40;18.77;;;29.40;99.90;;;;;;5021390;28;20052;-79
2023/09/09 10:20:29;;;;;;;25.50;21.08;;;29.40;99.90;;;;;;5011267;28;20053;-77
2023/09/09 10:22:59;;;;;;;34.65;21.92;;;29.40;99.90;;;;;;5012119;28;20053;-73
2023/09/09 10:25:30;;;;;;;26.92;21.33;;;29.50;99.90;;;;;;5029847;28;20084;-77
2023/09/09 10:27:57;;;;;;;26.08;23.38;;;29.60;99.90;;;;;;5030228;28;20088;-82
2023/09/09 10:30:24;;;;;;;27.95;22.85;;;29.80;99.90;;;;;;5030224;28;20049;-79
2023/09/09 10:32:50;;;;;;;24.17;21.38;;;29.70;99.90;;;;;;5014812;28;20049;-77
2023/09/09 10:35:17;;;;;;;22.25;19.83;;;29.90;99.90;;;;;;5001689;28;20079;-76
2023/09/09 10:37:43;;;;;;;24.90;19.48;;;29.80;99.90;;;;;;5022053;28;20104;-75
2023/09/09 10:40:10;;;;;;;21.98;19.55;;;30.00;99.90;;;;;;5029847;28;20060;-74
2023/09/09 10:42:38;;;;;;;20.60;16.33;;;30.10;99.90;;;;;;5030024;28;20038;-73
2023/09/09 10:45:25;;;;;;;28.95;21.23;;;30.30;99.90;;;;;;5008738;28;20157;-72
2023/09/09 10:48:00;;;;;;;24.38;19.35;;;30.20;99.90;;;;;;4998845;28;20060;-70
2023/09/09 10:50:43;;;;;;;27.17;18.02;;;30.20;99.90;;;;;;4993767;28;20066;-71
2023/09/09 10:53:17;;;;;;;23.88;18.60;;;30.30;99.90;;;;;;5020314;28;20037;-71
2023/09/09 10:55:44;;;;;;;22.60;17.42;;;30.50;99.90;;;;;;5005521;28;20073;-72
2023/09/09 10:58:15;;;;;;;14.75;13.25;;;30.60;99.90;;;;;;5024545;28;20049;-73
2023/09/09 11:00:43;;;;;;;17.60;13.00;;;30.70;99.90;;;;;;5011783;28;20116;-73
2023/09/09 11:03:25;;;;;;;16.60;12.82;;;30.70;99.90;;;;;;5011920;28;20128;-74
2023/09/09 11:06:05;;;;;;;20.00;12.70;;;30.80;99.90;;;;;;5011149;28;20060;-75
2023/09/09 11:08:44;;;;;;;16.25;12.65;;;30.80;99.90;;;;;;5029606;28;20136;-71
2023/09/09 11:11:18;;;;;;;14.23;10.45;;;30.80;99.90;;;;;;5005277;28;20050;-72
2023/09/09 11:13:49;;;;;;;12.77;9.27;;;30.90;99.90;;;;;;5029623;28;20511;-72
2023/09/09 11:16:38;;;;;;;10.88;8.80;;;31.00;99.90;;;;;;5011777;28;20060;-72
2023/09/09 11:19:12;;;;;;;13.20;10.43;;;30.90;99.90;;;;;;5028850;28;20060;-73
2023/09/09 11:21:43;;;;;;;11.98;10.23;;;30.80;99.90;;;;;;5011357;28;20057;-72
2023/09/09 11:24:10;;;;;;;14.60;9.82;;;30.80;99.90;;;;;;5033526;28;20045;-69
2023/09/09 11:26:42;;;;;;;12.13;8.75;;;31.00;99.90;;;;;;5017896;28;20120;-71
2023/09/09 11:29:09;;;;;;;11.60;7.95;;;31.10;99.90;;;;;;5018498;28;20074;-71
2023/09/09 11:31:34;;;;;;;15.60;10.50;;;31.40;99.90;;;;;;5018674;28;20401;-72
2023/09/09 11:34:00;;;;;;;12.05;10.85;;;31.40;99.90;;;;;;5018465;28;20049;-72
2023/09/09 11:36:28;;;;;;;11.25;9.23;;;31.30;99.90;;;;;;5017874;28;20200;-74
2023/09/09 11:38:56;;;;;;;13.02;9.05;;;31.40;99.90;;;;;;5017619;28;20059;-73
2023/09/09 11:41:27;;;;;;;16.08;9.95;;;31.60;99.90;;;;;;5017952;28;20049;-73
2023/09/09 11:44:07;;;;;;;13.18;8.57;;;31.50;99.90;;;;;;5018165;28;20049;-73
2023/09/09 11:46:40;;;;;;;14.40;9.85;;;31.50;99.90;;;;;;5009883;28;20563;-72
2023/09/09 11:49:06;;;;;;;14.55;8.80;;;31.40;99.90;;;;;;5017988;28;20119;-74
2023/09/09 11:51:33;;;;;;;12.95;9.77;;;31.50;99.90;;;;;;5017855;28;20077;-74
2023/09/09 11:53:59;;;;;;;10.93;8.70;;;31.50;99.90;;;;;;5035978;28;20053;-73
2023/09/09 11:56:26;;;;;;;14.23;9.05;;;31.50;99.90;;;;;;5035702;28;20058;-77
2023/09/09 11:58:52;;;;;;;17.75;10.55;;;31.60;99.90;;;;;;5017488;28;20053;-75
2023/09/09 12:01:19;;;;;;;12.55;9.50;;;31.60;99.90;;;;;;5035617;28;20045;-74
2023/09/09 12:03:45;;;;;;;12.20;9.35;;;31.60;99.90;;;;;;5017804;28;20077;-74
2023/09/09 12:06:12;;;;;;;12.90;10.45;;;31.50;99.90;;;;;;5018113;28;20085;-73
2023/09/09 12:08:39;;;;;;;12.35;9.20;;;31.40;99.90;;;;;;5035348;28;20045;-74
2023/09/09 12:11:08;;;;;;;11.55;9.20;;;31.50;99.90;;;;;;5017501;28;20045;-74
2023/09/09 12:13:36;;;;;;;14.35;9.45;;;31.60;99.90;;;;;;5035685;28;20488;-71
2023/09/09 12:16:02;;;;;;;13.82;10.60;;;31.50;99.90;;;;;;5017773;28;20087;-72
2023/09/09 12:18:28;;;;;;;14.80;11.35;;;31.40;99.90;;;;;;5016597;28;20061;-75
2023/09/09 12:21:07;;;;;;;15.48;9.85;;;31.30;99.90;;;;;;5017560;28;20048;-75
2023/09/09 12:23:35;;;;;;;15.32;11.15;;;31.40;99.90;;;;;;5014059;28;20575;-77
2023/09/09 12:26:27;;;;;;;16.10;10.25;;;31.50;99.90;;;;;;5017664;28;20042;-71
2023/09/09 12:29:06;;;;;;;12.43;9.00;;;31.60;99.50;;;;;;5014768;28;20173;-78
2023/09/09 12:31:33;;;;;;;12.13;8.73;;;31.70;98.90;;;;;;5036045;28;20048;-73